Time;durP1;ratioP1;P1;durP2;ratioP2;P2;SDS_P1;SDS_P2;PMS_P1;PMS_P2;Temp;Humidity;BMP_temperature;BMP_pressure;BME280_temperature;BME280_humidity;BME280_pressure;Samples;Min_cycle;Max_cycle;Signal;HPM_P1;HPM_P2
2021/01/22 00:01:44;;;;;;;;;;;;;;;28.61;19.49;101296.53;5096354;28;1906;-35
2021/01/22 00:04:09;;;;;;;;;;;;;;;28.18;20.32;101300.47;5096178;28;795;-27
2021/01/22 00:06:35;;;;;;;;;;;;;;;28.66;19.80;101296.81;5096886;28;787;-35
2021/01/22 00:09:09;;;;;;;;;;;;;;;28.77;19.86;101297.44;5097178;28;945;-27
2021/01/22 00:11:34;;;;;;;;;;;;;;;28.72;19.48;101289.84;5097042;28;775;-31
2021/01/22 00:14:00;;;;;;;;;;;;;;;28.51;19.51;101294.03;5096787;28;842;-35
2021/01/22 00:16:25;;;;;;;;;;;;;;;28.41;20.16;101298.88;5097074;28;791;-29
2021/01/22 00:18:50;;;;;;;;;;;;;;;28.73;19.71;101296.94;5096777;28;1119;-34
2021/01/22 00:21:15;;;;;;;;;;;;;;;28.78;19.41;101293.72;5096577;28;1961;-34
2021/01/22 00:23:41;;;;;;;;;;;;;;;28.61;19.68;101288.44;5079854;28;1008;-35
2021/01/22 00:26:06;;;;;;;;;;;;;;;27.93;20.59;101284.34;5076539;28;792;-29
2021/01/22 00:28:32;;;;;;;;;;;;;;;28.51;19.86;101279.69;5076383;28;756;-31
2021/01/22 00:30:57;;;;;;;;;;;;;;;28.84;19.89;101296.50;5076288;28;1260;-27
2021/01/22 00:33:22;;;;;;;;;;;;;;;28.84;19.36;101299.22;5076520;28;754;-32
2021/01/22 00:35:47;;;;;;;;;;;;;;;28.69;19.79;101295.63;5076364;28;874;-34
2021/01/22 00:38:13;;;;;;;;;;;;;;;28.40;20.16;101292.59;5088787;28;1005;-29
2021/01/22 00:40:38;;;;;;;;;;;;;;;28.77;19.69;101287.44;5096515;28;783;-35
2021/01/22 00:43:03;;;;;;;;;;;;;;;28.79;19.69;101284.56;5096354;28;1913;-30
2021/01/22 00:45:29;;;;;;;;;;;;;;;28.62;19.78;101284.69;5096524;28;780;-35
2021/01/22 00:47:54;;;;;;;;;;;;;;;28.15;20.45;101281.03;5097246;28;790;-30
2021/01/22 00:50:19;;;;;;;;;;;;;;;28.40;20.34;101284.47;5096293;28;834;-30
2021/01/22 00:52:48;;;;;;;;;;;;;;;28.68;19.71;101272.28;5096161;28;957;-29
2021/01/22 00:55:13;;;;;;;;;;;;;;;28.69;19.98;101276.69;5096610;28;819;-33
2021/01/22 00:57:38;;;;;;;;;;;;;;;28.03;20.87;101275.22;5096274;28;795;-36
2021/01/22 01:00:06;;;;;;;;;;;;;;;28.49;20.31;101277.16;5096213;28;801;-34
2021/01/22 01:02:31;;;;;;;;;;;;;;;28.91;19.96;101269.53;5096172;28;1882;-28
2021/01/22 01:04:56;;;;;;;;;;;;;;;28.80;19.96;101273.53;5096118;28;764;-27
2021/01/22 01:07:22;;;;;;;;;;;;;;;28.72;19.63;101265.50;5096071;28;954;-35
2021/01/22 01:09:47;;;;;;;;;;;;;;;28.40;20.41;101256.56;5096321;28;764;-35
2021/01/22 01:12:12;;;;;;;;;;;;;;;28.69;19.94;101263.16;5096036;28;788;-27
2021/01/22 01:14:37;;;;;;;;;;;;;;;28.88;19.59;101260.97;5096319;28;849;-29
2021/01/22 01:17:03;;;;;;;;;;;;;;;28.83;19.92;101259.63;5099702;28;1095;-32
2021/01/22 01:19:28;;;;;;;;;;;;;;;28.27;20.54;101255.28;5099613;28;839;-30
2021/01/22 01:21:56;;;;;;;;;;;;;;;28.66;20.11;101248.09;5098531;28;1968;-30
2021/01/22 01:24:22;;;;;;;;;;;;;;;28.84;19.63;101247.78;5080005;28;799;-32
2021/01/22 01:26:47;;;;;;;;;;;;;;;28.71;19.92;101240.28;5079428;28;871;-30
2021/01/22 01:29:12;;;;;;;;;;;;;;;28.36;20.74;101237.19;5080149;28;822;-28
2021/01/22 01:31:37;;;;;;;;;;;;;;;28.52;20.48;101246.19;5079935;28;1145;-31
2021/01/22 01:34:03;;;;;;;;;;;;;;;28.81;20.17;101240.03;5079314;28;878;-30
2021/01/22 01:36:28;;;;;;;;;;;;;;;28.77;20.03;101235.16;5079764;28;803;-29
2021/01/22 01:38:53;;;;;;;;;;;;;;;28.34;20.58;101231.91;5079734;28;1008;-30
2021/01/22 01:41:22;;;;;;;;;;;;;;;28.53;20.54;101231.66;5079198;28;1963;-32
2021/01/22 01:43:47;;;;;;;;;;;;;;;28.93;20.20;101229.59;5079639;28;759;-35
2021/01/22 01:46:12;;;;;;;;;;;;;;;28.84;20.13;101233.41;5079569;28;810;-33
2021/01/22 01:48:49;;;;;;;;;;;;;;;28.20;20.88;101235.38;5079097;28;867;-32
2021/01/22 01:51:15;;;;;;;;;;;;;;;28.40;20.56;101237.63;5078370;28;775;-33
2021/01/22 01:53:40;;;;;;;;;;;;;;;28.74;20.32;101228.25;5095499;28;997;-28
2021/01/22 01:56:06;;;;;;;;;;;;;;;28.82;19.82;101230.88;5099357;28;889;-28
2021/01/22 01:58:31;;;;;;;;;;;;;;;28.76;20.21;101231.59;5099652;28;775;-36
2021/01/22 02:00:57;;;;;;;;;;;;;;;28.40;20.61;101222.25;5099681;28;1905;-35
2021/01/22 02:03:22;;;;;;;;;;;;;;;28.67;20.24;101220.03;5099529;28;811;-28
2021/01/22 02:05:48;;;;;;;;;;;;;;;28.89;19.83;101225.59;5099596;28;732;-35
2021/01/22 02:08:13;;;;;;;;;;;;;;;28.80;20.21;101229.38;5098722;28;950;-33
2021/01/22 02:10:39;;;;;;;;;;;;;;;28.20;21.09;101221.84;5098355;28;799;-34
2021/01/22 02:13:04;;;;;;;;;;;;;;;28.60;20.58;101222.59;5099381;28;736;-36
2021/01/22 02:15:29;;;;;;;;;;;;;;;28.95;20.22;101218.56;5099136;28;894;-27
2021/01/22 02:17:54;;;;;;;;;;;;;;;28.77;20.39;101216.19;5097373;28;1107;-30
2021/01/22 02:20:23;;;;;;;;;;;;;;;28.71;19.94;101204.25;5097865;28;1285;-30
2021/01/22 02:22:48;;;;;;;;;;;;;;;28.33;20.96;101210.47;5089596;28;1906;-28
2021/01/22 02:25:14;;;;;;;;;;;;;;;28.75;20.55;101216.38;5078571;28;823;-27
2021/01/22 02:27:39;;;;;;;;;;;;;;;28.87;20.35;101210.53;5076636;28;794;-35
2021/01/22 02:30:05;;;;;;;;;;;;;;;28.71;20.06;101212.38;5077357;28;752;-33
2021/01/22 02:32:31;;;;;;;;;;;;;;;28.34;20.83;101212.16;5078425;28;1084;-27
2021/01/22 02:34:57;;;;;;;;;;;;;;;28.51;20.83;101207.44;5077568;28;815;-31
2021/01/22 02:37:22;;;;;;;;;;;;;;;28.87;20.03;101210.53;5082642;28;974;-34
2021/01/22 02:39:48;;;;;;;;;;;;;;;28.78;20.35;101205.19;5097312;28;862;-36
2021/01/22 02:42:13;;;;;;;;;;;;;;;28.16;21.23;101210.53;5097180;28;1976;-28
2021/01/22 02:44:38;;;;;;;;;;;;;;;28.47;20.71;101214.25;5097420;28;802;-29
2021/01/22 02:47:13;;;;;;;;;;;;;;;28.80;20.26;101208.56;5098790;28;829;-28
2021/01/22 02:49:39;;;;;;;;;;;;;;;28.76;20.14;101209.94;5098247;28;910;-30
2021/01/22 02:52:04;;;;;;;;;;;;;;;28.26;21.12;101210.28;5098495;28;989;-30
2021/01/22 02:54:30;;;;;;;;;;;;;;;28.63;20.48;101215.16;5098563;28;826;-33
2021/01/22 02:56:55;;;;;;;;;;;;;;;28.92;20.15;101213.53;5097865;28;549;-30
2021/01/22 02:59:45;;;;;;;;;;;;;;;28.91;20.34;101204.56;5098319;28;783;-30
2021/01/22 03:02:22;;;;;;;;;;;;;;;28.74;20.48;101206.59;5098108;28;1898;-28
2021/01/22 03:04:47;;;;;;;;;;;;;;;28.50;20.66;101213.88;5098117;28;870;-31
2021/01/22 03:10:00;;;;;;;;;;;;;;;28.79;20.49;101214.16;5096887;28;600;-35
2021/01/22 03:12:26;;;;;;;;;;;;;;;28.65;20.34;101211.22;5097124;28;811;-36
2021/01/22 03:14:51;;;;;;;;;;;;;;;28.47;20.84;101212.41;5098178;28;783;-36
2021/01/22 03:17:17;;;;;;;;;;;;;;;28.64;20.71;101214.97;5096602;28;1055;-32
2021/01/22 03:19:43;;;;;;;;;;;;;;;28.80;20.47;101218.53;5097535;28;1442;-29
2021/01/22 03:22:08;;;;;;;;;;;;;;;28.75;20.53;101205.56;5093084;28;1960;-35
2021/01/22 03:24:33;;;;;;;;;;;;;;;28.19;21.30;101206.66;5077442;28;886;-29
2021/01/22 03:26:59;;;;;;;;;;;;;;;28.03;21.52;101205.72;5077418;28;775;-29
2021/01/22 03:29:33;;;;;;;;;;;;;;;28.53;20.95;101208.09;5077531;28;763;-31
2021/01/22 03:31:59;;;;;;;;;;;;;;;28.83;20.17;101201.94;5077205;28;1155;-34
2021/01/22 03:34:26;;;;;;;;;;;;;;;28.74;20.14;101203.88;5076842;28;811;-28
2021/01/22 03:36:52;;;;;;;;;;;;;;;28.27;21.18;101212.00;5077306;28;969;-28
2021/01/22 03:39:17;;;;;;;;;;;;;;;28.73;20.28;101202.19;5076690;28;550;-29
2021/01/22 03:41:43;;;;;;;;;;;;;;;28.89;20.21;101213.91;5077184;28;1973;-32
2021/01/22 03:44:08;;;;;;;;;;;;;;;28.91;20.42;101212.69;5077317;28;831;-31
2021/01/22 03:46:33;;;;;;;;;;;;;;;28.73;20.29;101210.31;5076786;28;902;-28
2021/01/22 03:49:00;;;;;;;;;;;;;;;28.46;21.08;101218.81;5077307;28;835;-32
2021/01/22 03:51:25;;;;;;;;;;;;;;;28.80;20.55;101215.84;5076922;28;899;-30
2021/01/22 03:53:50;;;;;;;;;;;;;;;28.93;20.18;101224.19;5094498;28;977;-29
2021/01/22 03:56:15;;;;;;;;;;;;;;;28.75;20.55;101220.94;5097291;28;771;-28
2021/01/22 03:58:41;;;;;;;;;;;;;;;28.40;20.95;101214.13;5097352;28;826;-30
2021/01/22 04:01:06;;;;;;;;;;;;;;;27.83;21.21;101216.13;5096936;28;1901;-35
2021/01/22 04:03:31;;;;;;;;;;;;;;;28.54;20.12;101211.66;5097030;28;828;-31
2021/01/22 04:05:57;;;;;;;;;;;;;;;28.98;19.96;101212.00;5096863;28;808;-34
2021/01/22 04:08:22;;;;;;;;;;;;;;;28.75;19.39;101219.09;5096991;28;950;-29
2021/01/22 04:10:47;;;;;;;;;;;;;;;28.44;19.96;101220.88;5096842;28;763;-33
2021/01/22 04:13:12;;;;;;;;;;;;;;;28.57;19.88;101214.84;5097029;28;807;-30
2021/01/22 04:15:38;;;;;;;;;;;;;;;28.88;19.72;101214.94;5096956;28;763;-32
2021/01/22 04:18:03;;;;;;;;;;;;;;;28.87;19.09;101221.34;5096692;28;1161;-31
2021/01/22 04:20:28;;;;;;;;;;;;;;;27.58;14.43;101224.31;5096804;28;732;-27
2021/01/22 04:22:54;;;;;;;;;;;;;;;27.11;19.75;101229.53;5086292;28;1909;-28
2021/01/22 04:25:19;;;;;;;;;;;;;;;28.26;19.10;101229.22;5076318;28;851;-26
2021/01/22 04:27:44;;;;;;;;;;;;;;;28.64;19.12;101225.81;5076512;28;807;-36
2021/01/22 04:30:10;;;;;;;;;;;;;;;28.80;18.75;101232.09;5081493;28;843;-31
2021/01/22 04:32:35;;;;;;;;;;;;;;;27.18;20.84;101226.97;5095519;28;1032;-34
2021/01/22 04:35:01;;;;;;;;;;;;;;;28.52;19.29;101221.81;5096454;28;811;-30
2021/01/22 04:37:26;;;;;;;;;;;;;;;28.02;19.56;101216.72;5090024;28;949;-28
2021/01/22 04:39:51;;;;;;;;;;;;;;;27.79;19.96;101220.22;5075971;28;831;-30
2021/01/22 04:42:16;;;;;;;;;;;;;;;28.19;19.38;101218.31;5075839;28;2039;-27
2021/01/22 04:44:42;;;;;;;;;;;;;;;28.40;19.24;101208.72;5076282;28;772;-27
2021/01/22 04:47:08;;;;;;;;;;;;;;;28.64;18.92;101211.41;5074646;28;838;-30
2021/01/22 04:49:34;;;;;;;;;;;;;;;27.62;20.50;101213.00;5075679;28;866;-28
2021/01/22 04:52:00;;;;;;;;;;;;;;;27.65;20.25;101211.78;5083115;28;1021;-29
2021/01/22 04:54:26;;;;;;;;;;;;;;;27.66;18.46;101208.06;5101774;28;796;-28
2021/01/22 04:56:51;;;;;;;;;;;;;;;26.23;16.88;101208.34;5102861;28;771;-28
2021/01/22 05:02:21;;;;;;;;;;;;;;;24.11;17.86;101209.97;5090296;28;1901;-33
2021/01/22 05:04:46;;;;;;;;;;;;;;;25.86;17.02;101218.56;5103154;28;830;-29
2021/01/22 05:07:12;;;;;;;;;;;;;;;26.72;16.26;101217.53;5102018;28;950;-31
2021/01/22 05:09:37;;;;;;;;;;;;;;;20.29;20.90;101206.13;5102523;28;854;-29
2021/01/22 05:12:03;;;;;;;;;;;;;;;19.60;21.67;101210.69;5102990;28;779;-27
2021/01/22 05:14:28;;;;;;;;;;;;;;;18.95;22.70;101206.66;5102901;28;699;-26
2021/01/22 05:16:59;;;;;;;;;;;;;;;18.27;23.35;101209.03;5102666;28;775;-26
2021/01/22 05:19:24;;;;;;;;;;;;;;;21.40;20.22;101201.47;5082930;28;801;-28
2021/01/22 05:21:50;;;;;;;;;;;;;;;23.58;20.57;101215.06;5083873;28;1965;-29
2021/01/22 05:24:17;;;;;;;;;;;;;;;24.34;20.94;101209.56;5102702;28;790;-26
2021/01/22 05:26:42;;;;;;;;;;;;;;;24.95;18.92;101206.25;5101947;28;827;-29
2021/01/22 05:29:29;;;;;;;;;;;;;;;25.53;18.38;101205.75;5103001;28;823;-30
2021/01/22 05:31:54;;;;;;;;;;;;;;;26.28;17.91;101203.31;5102428;28;1095;-36
2021/01/22 05:34:19;;;;;;;;;;;;;;;26.61;17.56;101205.25;5103039;28;775;-28
2021/01/22 05:36:45;;;;;;;;;;;;;;;26.76;17.87;101202.69;5103001;28;957;-30
2021/01/22 05:39:18;;;;;;;;;;;;;;;27.01;17.92;101205.34;5101307;28;799;-32
2021/01/22 05:42:03;;;;;;;;;;;;;;;27.23;18.04;101205.69;5102801;28;1918;-30
2021/01/22 05:44:28;;;;;;;;;;;;;;;27.25;17.84;101195.56;5102296;28;1376;-32
2021/01/22 05:46:59;;;;;;;;;;;;;;;26.89;18.17;101202.19;5102871;28;724;-35
2021/01/22 05:49:31;;;;;;;;;;;;;;;27.16;18.21;101205.53;5102822;28;902;-32
2021/01/22 05:51:56;;;;;;;;;;;;;;;27.86;17.60;101202.28;5102334;28;957;-32
2021/01/22 05:54:31;;;;;;;;;;;;;;;27.91;18.11;101204.44;5102603;28;791;-37
2021/01/22 05:56:56;;;;;;;;;;;;;;;27.72;18.51;101195.75;5103075;28;803;-37
2021/01/22 05:59:21;;;;;;;;;;;;;;;27.96;18.08;101199.34;5102527;28;743;-38
2021/01/22 06:01:47;;;;;;;;;;;;;;;28.10;17.67;101197.72;5101358;28;1964;-37
2021/01/22 06:04:12;;;;;;;;;;;;;;;28.34;17.29;101195.94;5099628;28;783;-34
2021/01/22 06:06:37;;;;;;;;;;;;;;;28.40;17.22;101197.03;5099293;28;831;-35
2021/01/22 06:09:09;;;;;;;;;;;;;;;28.14;16.95;101198.22;5099044;28;938;-32
2021/01/22 06:11:34;;;;;;;;;;;;;;;28.19;17.55;101195.81;5096185;28;1499;-31
2021/01/22 06:14:02;;;;;;;;;;;;;;;28.19;17.71;101196.69;5098424;28;800;-32
2021/01/22 06:16:28;;;;;;;;;;;;;;;28.02;18.39;101197.78;5097834;28;819;-32
2021/01/22 06:19:03;;;;;;;;;;;;;;;29.00;17.53;101197.22;5099032;28;1205;-36
2021/01/22 06:21:31;;;;;;;;;;;;;;;29.55;16.85;101201.53;5098377;28;1968;-34
2021/01/22 06:23:56;;;;;;;;;;;;;;;29.52;16.98;101204.59;5098511;28;1081;-34
2021/01/22 06:26:22;;;;;;;;;;;;;;;29.53;17.08;101201.72;5097035;28;1009;-34
2021/01/22 06:28:50;;;;;;;;;;;;;;;29.77;17.18;101202.47;5098916;28;872;-34
2021/01/22 06:31:19;;;;;;;;;;;;;;;29.87;17.16;101198.59;5098971;28;1073;-33
2021/01/22 06:33:44;;;;;;;;;;;;;;;29.91;17.13;101203.44;5099012;28;804;-33
2021/01/22 06:36:10;;;;;;;;;;;;;;;29.63;17.62;101200.63;5099193;28;783;-32
2021/01/22 06:38:35;;;;;;;;;;;;;;;29.34;17.46;101193.13;5097458;28;1033;-32
2021/01/22 06:41:01;;;;;;;;;;;;;;;29.03;16.99;101196.84;5097332;28;1910;-32
2021/01/22 06:43:26;;;;;;;;;;;;;;;28.45;17.70;101198.19;5097927;28;803;-32
2021/01/22 06:45:56;;;;;;;;;;;;;;;28.52;17.55;101200.19;5097567;28;779;-32
2021/01/22 06:48:22;;;;;;;;;;;;;;;28.81;17.04;101196.69;5096994;28;987;-32
2021/01/22 06:50:47;;;;;;;;;;;;;;;29.15;16.60;101193.69;5098875;28;839;-31
2021/01/22 06:53:13;;;;;;;;;;;;;;;29.31;16.39;101196.22;5097136;28;1013;-31
2021/01/22 06:55:53;;;;;;;;;;;;;;;29.25;16.56;101198.81;5098710;28;814;-32
2021/01/22 06:58:26;;;;;;;;;;;;;;;29.43;16.67;101188.44;5099030;28;758;-32
2021/01/22 07:01:26;;;;;;;;;;;;;;;29.48;16.45;101192.47;5098661;28;738;-31
2021/01/22 07:03:51;;;;;;;;;;;;;;;29.36;16.23;101186.69;5098239;28;1929;-32
2021/01/22 07:06:35;;;;;;;;;;;;;;;28.84;16.60;101180.06;5098527;28;774;-31
2021/01/22 07:09:00;;;;;;;;;;;;;;;28.11;17.92;101175.91;5097763;28;977;-32
2021/01/22 07:11:25;;;;;;;;;;;;;;;29.02;16.77;101175.38;5098785;28;818;-31
2021/01/22 07:13:51;;;;;;;;;;;;;;;29.14;16.76;101179.31;5096546;28;775;-33
2021/01/22 07:16:16;;;;;;;;;;;;;;;29.49;16.79;101172.47;5098270;28;787;-32
2021/01/22 07:18:42;;;;;;;;;;;;;;;29.49;16.68;101170.59;5098440;28;1095;-33
2021/01/22 07:21:22;;;;;;;;;;;;;;;29.53;16.58;101168.38;5097994;28;1905;-30
2021/01/22 07:23:50;;;;;;;;;;;;;;;29.04;16.68;101168.75;5080159;28;1174;-33
2021/01/22 07:26:15;;;;;;;;;;;;;;;28.70;17.24;101162.81;5076407;28;794;-32
2021/01/22 07:28:50;;;;;;;;;;;;;;;29.05;17.23;101173.16;5077653;28;728;-31
2021/01/22 07:31:34;;;;;;;;;;;;;;;29.47;17.00;101169.94;5077510;28;1060;-31
2021/01/22 07:33:59;;;;;;;;;;;;;;;29.60;16.42;101172.00;5078157;28;799;-33
2021/01/22 07:36:25;;;;;;;;;;;;;;;28.96;16.90;101171.53;5077571;28;847;-32
2021/01/22 07:38:50;;;;;;;;;;;;;;;28.39;17.73;101174.59;5095429;28;958;-31
2021/01/22 07:41:19;;;;;;;;;;;;;;;28.89;17.41;101176.00;5097954;28;1968;-33
2021/01/22 07:43:44;;;;;;;;;;;;;;;29.23;17.10;101171.09;5097538;28;751;-31
2021/01/22 07:46:10;;;;;;;;;;;;;;;29.33;16.29;101177.06;5097458;28;825;-33
2021/01/22 07:48:36;;;;;;;;;;;;;;;28.38;17.69;101172.06;5097729;28;767;-32
2021/01/22 07:51:20;;;;;;;;;;;;;;;28.31;18.18;101170.03;5097396;28;775;-32
2021/01/22 07:53:45;;;;;;;;;;;;;;;28.62;17.90;101171.00;5097334;28;949;-31
2021/01/22 07:56:10;;;;;;;;;;;;;;;29.19;17.95;101170.63;5097676;28;803;-33
2021/01/22 07:58:38;;;;;;;;;;;;;;;29.49;18.06;101164.34;5094921;28;851;-33
2021/01/22 08:01:17;;;;;;;;;;;;;;;29.51;17.95;101168.53;5095641;28;1898;-31
2021/01/22 08:03:43;;;;;;;;;;;;;;;28.94;18.43;101163.59;5097077;28;866;-33
2021/01/22 08:06:08;;;;;;;;;;;;;;;28.26;19.31;101160.78;5096935;28;763;-29
2021/01/22 08:08:33;;;;;;;;;;;;;;;28.81;18.69;101160.69;5081869;28;968;-33
2021/01/22 08:10:59;;;;;;;;;;;;;;;29.03;18.98;101160.81;5076806;28;807;-33
2021/01/22 08:13:24;;;;;;;;;;;;;;;29.38;18.38;101161.06;5076871;28;835;-32
2021/01/22 08:16:02;;;;;;;;;;;;;;;28.98;18.39;101161.34;5077009;28;776;-29
2021/01/22 08:18:27;;;;;;;;;;;;;;;28.71;18.99;101161.75;5089519;28;1102;-35
2021/01/22 08:20:53;;;;;;;;;;;;;;;28.83;19.28;101161.31;5097007;28;752;-31
2021/01/22 08:23:18;;;;;;;;;;;;;;;29.27;18.43;101156.13;5082405;28;1917;-32
2021/01/22 08:25:43;;;;;;;;;;;;;;;29.46;18.23;101160.16;5075877;28;748;-32
2021/01/22 08:28:09;;;;;;;;;;;;;;;29.62;18.16;101158.25;5082602;28;878;-31
2021/01/22 08:30:34;;;;;;;;;;;;;;;29.41;18.08;101160.69;5097018;28;762;-35
2021/01/22 08:33:00;;;;;;;;;;;;;;;28.91;18.74;101155.00;5095307;28;1278;-34
2021/01/22 08:35:26;;;;;;;;;;;;;;;28.72;19.24;101158.06;5095569;28;791;-32
2021/01/22 08:37:51;;;;;;;;;;;;;;;29.32;18.42;101156.41;5096696;28;1027;-33
2021/01/22 08:40:17;;;;;;;;;;;;;;;29.06;18.65;101152.31;5096706;28;731;-31
2021/01/22 08:42:56;;;;;;;;;;;;;;;28.83;18.93;101145.91;5095252;28;1984;-31
2021/01/22 08:45:21;;;;;;;;;;;;;;;29.02;18.65;101140.16;5096548;28;783;-32
2021/01/22 08:47:46;;;;;;;;;;;;;;;28.96;19.07;101134.44;5096701;28;866;-34
2021/01/22 08:50:15;;;;;;;;;;;;;;;29.10;18.83;101140.06;5095316;28;1283;-32
2021/01/22 08:52:40;;;;;;;;;;;;;;;28.99;19.01;101135.97;5096568;28;1001;-35
2021/01/22 08:55:16;;;;;;;;;;;;;;;29.11;19.08;101135.50;5095627;28;847;-30
2021/01/22 08:57:42;;;;;;;;;;;;;;;29.69;18.65;101132.94;5095038;28;1040;-31
2021/01/22 09:00:33;;;;;;;;;;;;;;;29.73;18.42;101127.94;5094931;28;1534;-33
2021/01/22 09:02:58;;;;;;;;;;;;;;;29.82;18.55;101134.94;5096428;28;1906;-31
2021/01/22 09:05:23;;;;;;;;;;;;;;;30.00;18.55;101128.22;5096499;28;811;-31
2021/01/22 09:08:08;;;;;;;;;;;;;;;30.03;18.73;101132.44;5096187;28;1012;-31
2021/01/22 09:10:34;;;;;;;;;;;;;;;30.10;18.78;101127.91;5096619;28;839;-35
2021/01/22 09:13:19;;;;;;;;;;;;;;;30.15;18.91;101121.88;5095200;28;759;-32
2021/01/22 09:15:45;;;;;;;;;;;;;;;30.19;18.83;101113.19;5096308;28;771;-32
2021/01/22 09:18:20;;;;;;;;;;;;;;;30.27;18.86;101120.38;5095487;28;1106;-32
2021/01/22 09:20:55;;;;;;;;;;;;;;;30.25;19.12;101114.28;5096181;28;776;-33
2021/01/22 09:23:21;;;;;;;;;;;;;;;30.33;18.84;101116.00;5082610;28;1901;-32
2021/01/22 09:25:46;;;;;;;;;;;;;;;28.57;16.81;101112.00;5076256;28;831;-29
2021/01/22 09:28:11;;;;;;;;;;;;;;;28.81;18.41;101110.06;5075918;28;780;-29
2021/01/22 09:30:45;;;;;;;;;;;;;;;29.45;18.40;101101.53;5075693;28;540;-29
2021/01/22 09:33:11;;;;;;;;;;;;;;;29.76;18.38;101105.84;5074604;28;1247;-31
2021/01/22 09:35:36;;;;;;;;;;;;;;;29.91;18.53;101094.13;5075797;28;831;-31
2021/01/22 09:38:01;;;;;;;;;;;;;;;30.01;18.17;101096.53;5089708;28;1043;-33
2021/01/22 09:40:27;;;;;;;;;;;;;;;30.02;18.31;101082.75;5100173;28;771;-30
2021/01/22 09:42:52;;;;;;;;;;;;;;;30.04;18.42;101072.56;5099800;28;1988;-32
2021/01/22 09:45:17;;;;;;;;;;;;;;;30.05;18.46;101071.50;5100108;28;818;-30
2021/01/22 09:47:43;;;;;;;;;;;;;;;30.08;18.29;101074.88;5100365;28;861;-33
2021/01/22 09:50:09;;;;;;;;;;;;;;;30.03;18.79;101073.56;5099678;28;790;-31
2021/01/22 09:52:36;;;;;;;;;;;;;;;30.15;18.75;101075.75;5099903;28;1004;-29
2021/01/22 09:55:02;;;;;;;;;;;;;;;30.36;18.45;101068.66;5100026;28;775;-35
2021/01/22 09:57:27;;;;;;;;;;;;;;;30.28;18.37;101061.50;5099397;28;807;-34
2021/01/22 09:59:52;;;;;;;;;;;;;;;30.26;18.67;101058.97;5100022;28;756;-31
2021/01/22 10:02:18;;;;;;;;;;;;;;;30.06;19.18;101056.09;5099842;28;1910;-34
2021/01/22 10:04:43;;;;;;;;;;;;;;;30.34;18.35;101058.00;5097838;28;834;-30
2021/01/22 10:07:08;;;;;;;;;;;;;;;30.37;18.44;101051.31;5099371;28;989;-35
2021/01/22 10:09:34;;;;;;;;;;;;;;;30.35;18.85;101048.81;5099633;28;767;-29
2021/01/22 10:11:59;;;;;;;;;;;;;;;30.06;19.03;101048.78;5098931;28;816;-35
2021/01/22 10:14:25;;;;;;;;;;;;;;;30.21;18.92;101045.19;5099514;28;748;-33
2021/01/22 10:16:50;;;;;;;;;;;;;;;29.67;17.89;101037.38;5099626;28;802;-36
2021/01/22 10:19:15;;;;;;;;;;;;;;;28.96;19.18;101038.84;5099000;28;1264;-31
2021/01/22 10:21:40;;;;;;;;;;;;;;;29.76;18.28;101039.97;5099161;28;1906;-35
2021/01/22 10:24:06;;;;;;;;;;;;;;;29.77;18.18;101036.22;5079356;28;993;-37
2021/01/22 10:26:31;;;;;;;;;;;;;;;29.20;18.44;101034.97;5078946;28;768;-32
2021/01/22 10:28:57;;;;;;;;;;;;;;;29.34;18.72;101029.72;5078876;28;799;-31
2021/01/22 10:31:22;;;;;;;;;;;;;;;29.26;18.91;101036.06;5077823;28;1177;-29
2021/01/22 10:33:47;;;;;;;;;;;;;;;29.74;18.50;101033.88;5078336;28;514;-31
2021/01/22 10:36:13;;;;;;;;;;;;;;;29.88;18.00;101030.25;5078921;28;731;-30
2021/01/22 10:38:38;;;;;;;;;;;;;;;29.57;18.05;101017.84;5094704;28;970;-35
2021/01/22 10:41:04;;;;;;;;;;;;;;;28.64;19.21;101014.66;5098724;28;1010;-36
2021/01/22 10:43:29;;;;;;;;;;;;;;;28.35;19.92;101008.22;5098817;28;1971;-32
2021/01/22 10:45:54;;;;;;;;;;;;;;;29.35;18.84;101009.72;5099117;28;811;-36
2021/01/22 10:48:20;;;;;;;;;;;;;;;29.78;18.49;101008.91;5097719;28;767;-35
2021/01/22 10:50:46;;;;;;;;;;;;;;;29.75;18.54;101005.72;5099007;28;718;-33
2021/01/22 10:53:11;;;;;;;;;;;;;;;29.23;19.26;100995.81;5098606;28;949;-36
2021/01/22 10:55:37;;;;;;;;;;;;;;;30.00;18.48;100999.88;5098867;28;811;-35
2021/01/22 10:58:02;;;;;;;;;;;;;;;30.15;18.03;100994.38;5098453;28;870;-33
2021/01/22 11:00:58;;;;;;;;;;;;;;;29.99;18.36;100993.66;5098773;28;814;-35
2021/01/22 11:03:24;;;;;;;;;;;;;;;29.72;18.79;100985.28;5098171;28;1901;-34
2021/01/22 11:05:49;;;;;;;;;;;;;;;30.06;18.91;100972.00;5098645;28;751;-33
2021/01/22 11:08:32;;;;;;;;;;;;;;;30.06;18.45;100969.28;5098207;28;958;-29
2021/01/22 11:10:57;;;;;;;;;;;;;;;29.81;19.20;100967.00;5097799;28;821;-32
2021/01/22 11:13:23;;;;;;;;;;;;;;;30.05;18.90;100965.72;5098415;28;760;-31
2021/01/22 11:15:48;;;;;;;;;;;;;;;30.29;18.77;100960.06;5098590;28;815;-32
2021/01/22 11:18:15;;;;;;;;;;;;;;;30.36;18.35;100954.66;5098238;28;1146;-32
2021/01/22 11:20:41;;;;;;;;;;;;;;;29.69;19.45;100953.16;5098258;28;831;-32
2021/01/22 11:23:06;;;;;;;;;;;;;;;30.19;19.15;100955.81;5096099;28;1966;-32
2021/01/22 11:25:31;;;;;;;;;;;;;;;30.42;18.71;100952.00;5097790;28;752;-32
2021/01/22 11:27:57;;;;;;;;;;;;;;;30.31;18.83;100947.97;5098147;28;764;-33
2021/01/22 11:33:09;;;;;;;;;;;;;;;30.34;18.90;100949.44;5097515;28;1055;-34
2021/01/22 11:35:35;;;;;;;;;;;;;;;30.52;18.87;100948.06;5098019;28;827;-36
2021/01/22 11:38:00;;;;;;;;;;;;;;;30.46;18.72;100941.59;5097688;28;968;-36
2021/01/22 11:40:25;;;;;;;;;;;;;;;30.60;18.60;100936.19;5097891;28;724;-32
2021/01/22 11:42:50;;;;;;;;;;;;;;;30.66;18.79;100929.97;5097835;28;1913;-31
2021/01/22 11:45:16;;;;;;;;;;;;;;;30.79;18.48;100940.88;5097645;28;823;-32
2021/01/22 11:47:41;;;;;;;;;;;;;;;30.85;18.48;100925.66;5097517;28;870;-36
2021/01/22 11:50:07;;;;;;;;;;;;;;;30.89;18.55;100926.94;5097744;28;779;-30
2021/01/22 11:52:32;;;;;;;;;;;;;;;30.97;18.57;100922.34;5097283;28;946;-29
2021/01/22 11:54:57;;;;;;;;;;;;;;;31.06;18.48;100928.44;5097428;28;764;-30
2021/01/22 11:57:23;;;;;;;;;;;;;;;31.01;18.61;100912.75;5097811;28;772;-32
2021/01/22 11:59:48;;;;;;;;;;;;;;;30.89;18.71;100907.09;5097412;28;827;-32
2021/01/22 12:02:13;;;;;;;;;;;;;;;30.72;19.07;100904.72;5097228;28;1965;-28
2021/01/22 12:04:38;;;;;;;;;;;;;;;30.86;18.78;100908.34;5096850;28;854;-32
2021/01/22 12:07:04;;;;;;;;;;;;;;;30.85;18.77;100908.53;5096962;28;996;-37
2021/01/22 12:09:29;;;;;;;;;;;;;;;30.85;19.17;100897.66;5097590;28;823;-31
2021/01/22 12:11:54;;;;;;;;;;;;;;;30.74;19.10;100894.47;5097021;28;839;-33
2021/01/22 12:14:20;;;;;;;;;;;;;;;30.75;19.10;100893.44;5097176;28;755;-33
2021/01/22 12:16:45;;;;;;;;;;;;;;;30.79;19.18;100889.28;5097254;28;836;-33
2021/01/22 12:19:10;;;;;;;;;;;;;;;29.64;18.07;100887.84;5096816;28;1082;-31
2021/01/22 12:21:35;;;;;;;;;;;;;;;28.01;18.93;100885.97;5096924;28;1905;-31
2021/01/22 12:24:01;;;;;;;;;;;;;;;27.07;19.48;100885.25;5077501;28;938;-36
2021/01/22 12:26:26;;;;;;;;;;;;;;;25.10;22.07;100872.75;5076539;28;752;-29
2021/01/22 12:28:51;;;;;;;;;;;;;;;24.07;23.09;100872.69;5088607;28;866;-36
2021/01/22 12:31:17;;;;;;;;;;;;;;;25.99;20.40;100878.47;5097072;28;1130;-30
2021/01/22 12:33:42;;;;;;;;;;;;;;;25.86;21.80;100876.31;5096684;28;819;-32
2021/01/22 12:36:07;;;;;;;;;;;;;;;24.00;22.83;100879.69;5096995;28;739;-28
2021/01/22 12:38:34;;;;;;;;;;;;;;;25.10;21.49;100880.81;5096652;28;950;-28
2021/01/22 12:41:00;;;;;;;;;;;;;;;24.94;22.27;100877.09;5096538;28;829;-30
2021/01/22 12:43:25;;;;;;;;;;;;;;;25.96;21.38;100876.94;5096476;28;1906;-29
2021/01/22 12:45:50;;;;;;;;;;;;;;;26.51;20.18;100876.25;5097261;28;759;-30
2021/01/22 12:48:16;;;;;;;;;;;;;;;27.56;18.93;100877.78;5096423;28;779;-30
2021/01/22 12:50:42;;;;;;;;;;;;;;;27.86;18.49;100880.59;5097116;28;811;-32
2021/01/22 12:53:07;;;;;;;;;;;;;;;27.22;19.29;100886.19;5096529;28;949;-30
2021/01/22 12:55:32;;;;;;;;;;;;;;;26.68;20.30;100874.31;5096099;28;838;-31
2021/01/22 12:57:58;;;;;;;;;;;;;;;26.15;20.71;100864.94;5096666;28;818;-29
2021/01/22 13:00:23;;;;;;;;;;;;;;;26.46;20.43;100866.00;5096678;28;838;-28
2021/01/22 13:02:48;;;;;;;;;;;;;;;26.35;20.54;100858.31;5096384;28;1966;-29